createdAt,value
2022-08-14T00:02:26.957Z,99.90
2022-08-14T00:07:58.592Z,99.90
2022-08-14T00:10:51.252Z,99.90
2022-08-14T00:13:16.898Z,99.90
2022-08-14T00:15:49.682Z,99.90
2022-08-14T00:18:31.034Z,99.90
2022-08-14T00:21:11.818Z,99.90
2022-08-14T00:23:40.704Z,99.90
2022-08-14T00:26:21.999Z,99.90
2022-08-14T00:28:52.249Z,99.90
2022-08-14T00:31:22.421Z,99.90
2022-08-14T00:34:36.554Z,99.90
2022-08-14T00:36:54.159Z,99.90
2022-08-14T00:39:22.974Z,99.90
2022-08-14T00:41:55.674Z,99.90
2022-08-14T00:44:32.062Z,99.90
2022-08-14T00:47:02.565Z,99.90
2022-08-14T00:49:37.903Z,99.90
2022-08-14T00:52:08.695Z,99.90
2022-08-14T00:54:43.366Z,99.90
2022-08-14T00:57:12.215Z,99.90
2022-08-14T00:59:41.470Z,99.90
2022-08-14T01:02:10.702Z,99.90
2022-08-14T01:04:54.391Z,99.90
2022-08-14T01:07:27.161Z,99.90
2022-08-14T01:09:58.828Z,99.90
2022-08-14T01:15:31.602Z,99.90
2022-08-14T01:18:28.804Z,99.90
2022-08-14T01:21:06.424Z,99.90
2022-08-14T01:23:46.475Z,99.90
2022-08-14T01:26:34.834Z,99.90
2022-08-14T01:29:10.978Z,99.90
2022-08-14T01:31:46.010Z,99.90
2022-08-14T01:35:17.850Z,99.90
2022-08-14T01:37:08.529Z,99.90
2022-08-14T01:39:40.896Z,99.90
2022-08-14T01:42:11.215Z,99.90
2022-08-14T01:44:59.819Z,99.90
2022-08-14T01:47:33.652Z,99.90
2022-08-14T01:50:06.998Z,99.90
2022-08-14T01:52:59.224Z,99.90
2022-08-14T01:55:32.443Z,99.90
2022-08-14T01:58:20.157Z,99.90
2022-08-14T02:00:55.143Z,99.90
2022-08-14T02:03:30.057Z,99.90
2022-08-14T02:06:03.667Z,99.90
2022-08-14T02:08:53.323Z,99.90
2022-08-14T02:11:25.986Z,99.90
2022-08-14T02:13:59.774Z,99.90
2022-08-14T02:16:39.539Z,99.90
2022-08-14T02:19:10.196Z,99.90
2022-08-14T02:21:43.433Z,99.90
2022-08-14T02:24:40.439Z,99.90
2022-08-14T02:28:26.018Z,99.90
2022-08-14T02:30:00.479Z,99.90
2022-08-14T02:32:36.242Z,99.90
2022-08-14T02:35:18.974Z,99.90
2022-08-14T02:37:49.345Z,99.90
2022-08-14T02:40:19.310Z,99.90
2022-08-14T02:42:54.688Z,99.90
2022-08-14T02:45:32.984Z,99.90
2022-08-14T02:48:10.228Z,99.90
2022-08-14T02:50:56.141Z,99.90
2022-08-14T02:53:24.646Z,99.90
2022-08-14T02:55:54.208Z,99.90
2022-08-14T02:58:30.828Z,99.90
2022-08-14T03:01:01.141Z,99.90
2022-08-14T03:03:31.683Z,99.90
2022-08-14T03:06:01.258Z,99.90
2022-08-14T03:08:33.666Z,99.90
2022-08-14T03:11:07.721Z,99.90
2022-08-14T03:13:39.750Z,99.90
2022-08-14T03:16:19.877Z,99.90
2022-08-14T03:18:59.890Z,99.90
2022-08-14T03:21:30.155Z,99.90
2022-08-14T03:24:21.682Z,99.90
2022-08-14T03:26:57.447Z,99.90
2022-08-14T03:29:29.496Z,99.90
2022-08-14T03:31:59.525Z,99.90
2022-08-14T03:34:52.559Z,99.90
2022-08-14T03:37:39.444Z,99.90
2022-08-14T03:40:07.648Z,99.90
2022-08-14T03:42:40.096Z,99.90
2022-08-14T03:45:25.706Z,99.90
2022-08-14T03:48:02.030Z,99.90
2022-08-14T03:50:32.513Z,99.90
2022-08-14T03:53:02.366Z,99.90
2022-08-14T03:55:31.558Z,99.90
2022-08-14T03:58:00.961Z,99.90
2022-08-14T04:00:43.395Z,99.90
2022-08-14T04:03:23.624Z,99.90
2022-08-14T04:05:53.124Z,99.90
2022-08-14T04:08:22.901Z,99.90
2022-08-14T04:10:58.610Z,99.90
2022-08-14T04:13:31.809Z,99.90
2022-08-14T04:16:06.811Z,99.90
2022-08-14T04:18:43.689Z,99.90
2022-08-14T04:21:12.878Z,99.90
2022-08-14T04:23:43.931Z,99.90
2022-08-14T04:26:27.424Z,99.90
2022-08-14T04:29:14.691Z,99.90
2022-08-14T04:32:58.018Z,99.90
2022-08-14T04:34:33.935Z,99.90
2022-08-14T04:37:24.645Z,99.90
2022-08-14T04:40:11.017Z,99.90
2022-08-14T04:42:57.009Z,99.90
2022-08-14T04:45:29.747Z,99.90
2022-08-14T04:48:39.672Z,99.90
2022-08-14T04:51:04.995Z,99.90
2022-08-14T04:53:36.217Z,99.90
2022-08-14T04:56:30.654Z,99.90
2022-08-14T04:59:09.575Z,99.90
2022-08-14T05:01:41.779Z,99.90
2022-08-14T05:04:20.210Z,99.90
2022-08-14T05:06:53.613Z,99.90
2022-08-14T05:09:23.374Z,99.90
2022-08-14T05:11:51.979Z,99.90
2022-08-14T05:14:45.561Z,99.90
2022-08-14T05:17:12.127Z,99.90
2022-08-14T05:21:04.369Z,99.90
2022-08-14T05:22:32.789Z,99.90
2022-08-14T05:25:02.023Z,99.90
2022-08-14T05:27:32.408Z,99.90
2022-08-14T05:30:05.566Z,99.90
2022-08-14T05:32:34.626Z,99.90
2022-08-14T05:35:04.744Z,99.90
2022-08-14T05:37:33.561Z,99.90
2022-08-14T05:40:02.317Z,99.90
2022-08-14T05:42:32.095Z,99.90
2022-08-14T05:45:04.399Z,99.90
2022-08-14T05:47:38.923Z,99.90
2022-08-14T05:50:17.314Z,99.90
2022-08-14T05:52:48.805Z,99.90
2022-08-14T05:55:22.890Z,99.90
2022-08-14T05:57:54.046Z,99.90
2022-08-14T06:00:29.326Z,99.90
2022-08-14T06:03:04.079Z,99.90
2022-08-14T06:05:38.707Z,99.90
2022-08-14T06:08:08.773Z,99.90
2022-08-14T06:10:51.536Z,99.90
2022-08-14T06:13:22.613Z,99.90
2022-08-14T06:16:00.202Z,99.90
2022-08-14T06:18:32.148Z,99.90
2022-08-14T06:21:02.468Z,99.90
2022-08-14T06:23:31.013Z,99.90
2022-08-14T06:25:59.673Z,99.90
2022-08-14T06:28:29.273Z,99.90
2022-08-14T06:30:57.958Z,99.90
2022-08-14T06:33:30.112Z,99.90
2022-08-14T06:36:19.374Z,99.90
2022-08-14T06:38:50.267Z,99.90
2022-08-14T06:41:20.817Z,99.90
2022-08-14T06:44:09.701Z,99.90
2022-08-14T06:46:38.617Z,99.90
2022-08-14T06:49:07.550Z,99.90
2022-08-14T06:51:44.956Z,99.90
2022-08-14T06:54:13.919Z,99.90
2022-08-14T06:56:54.341Z,99.90
2022-08-14T06:59:25.922Z,99.90
2022-08-14T07:02:17.646Z,99.90
2022-08-14T07:05:05.241Z,99.90
2022-08-14T07:07:39.503Z,99.90
2022-08-14T07:10:13.243Z,99.90
2022-08-14T07:13:01.322Z,99.90
2022-08-14T07:15:33.994Z,99.90
2022-08-14T07:18:09.329Z,99.90
2022-08-14T07:20:38.556Z,99.90
2022-08-14T07:23:19.934Z,99.90
2022-08-14T07:25:51.431Z,99.90
2022-08-14T07:28:25.537Z,99.90
2022-08-14T07:31:04.190Z,99.90
2022-08-14T07:33:36.770Z,99.90
2022-08-14T07:36:26.703Z,99.90
2022-08-14T07:38:58.209Z,99.90
2022-08-14T07:41:34.041Z,99.90
2022-08-14T07:44:31.972Z,99.90
2022-08-14T07:46:53.511Z,99.90
2022-08-14T07:49:24.083Z,99.90
2022-08-14T07:51:52.946Z,99.90
2022-08-14T07:54:30.386Z,99.90
2022-08-14T07:57:00.662Z,99.90
2022-08-14T07:59:41.594Z,99.90
2022-08-14T08:02:18.515Z,99.90
2022-08-14T08:04:53.193Z,99.90
2022-08-14T08:07:24.304Z,99.90
2022-08-14T08:10:02.069Z,99.90
2022-08-14T08:12:32.406Z,99.90
2022-08-14T08:15:07.815Z,99.90
2022-08-14T08:17:42.342Z,99.90
2022-08-14T08:20:20.025Z,99.90
2022-08-14T08:22:55.612Z,99.90
2022-08-14T08:25:27.166Z,99.90
2022-08-14T08:28:00.857Z,99.90
2022-08-14T08:30:49.656Z,99.90
2022-08-14T08:33:20.574Z,99.90
2022-08-14T08:35:51.420Z,99.90
2022-08-14T08:39:17.615Z,99.90
2022-08-14T08:41:14.393Z,99.90
2022-08-14T08:43:46.159Z,99.90
2022-08-14T08:46:18.632Z,99.90
2022-08-14T08:51:25.038Z,99.90
2022-08-14T08:54:01.219Z,99.90
2022-08-14T08:56:43.237Z,99.90
2022-08-14T08:59:22.057Z,99.90
2022-08-14T09:01:56.249Z,99.90
2022-08-14T09:04:26.898Z,99.90
2022-08-14T09:07:10.406Z,99.90
2022-08-14T09:09:54.707Z,99.90
2022-08-14T09:12:33.510Z,99.90
2022-08-14T09:15:03.472Z,99.90
2022-08-14T09:17:33.515Z,99.90
2022-08-14T09:20:04.258Z,99.90
2022-08-14T09:22:36.365Z,99.90
2022-08-14T09:25:07.165Z,99.90
2022-08-14T09:27:38.110Z,99.90
2022-08-14T09:30:31.525Z,99.90
2022-08-14T09:33:24.016Z,99.90
2022-08-14T09:36:04.775Z,99.90
2022-08-14T09:38:40.790Z,99.90
2022-08-14T09:41:19.787Z,99.90
2022-08-14T09:43:58.397Z,99.90
2022-08-14T09:46:28.041Z,99.90
2022-08-14T09:49:00.579Z,99.90
2022-08-14T09:51:32.907Z,99.90
2022-08-14T09:54:22.651Z,99.90
2022-08-14T09:56:57.494Z,99.90
2022-08-14T09:59:33.520Z,99.90
2022-08-14T10:02:07.255Z,99.90
2022-08-14T10:04:42.292Z,99.90
2022-08-14T10:07:14.659Z,99.90
2022-08-14T10:10:00.234Z,99.90
2022-08-14T10:12:52.880Z,99.60
2022-08-14T10:15:30.097Z,98.50
2022-08-14T10:18:17.283Z,99.00
2022-08-14T10:20:53.562Z,98.10
2022-08-14T10:23:24.622Z,98.20
2022-08-14T10:26:05.242Z,98.70
2022-08-14T10:29:17.855Z,98.80
2022-08-14T10:31:43.271Z,97.90
2022-08-14T10:34:21.212Z,98.50
2022-08-14T10:37:10.456Z,98.30
2022-08-14T10:40:01.903Z,97.10
2022-08-14T10:42:39.669Z,96.80
2022-08-14T10:45:21.486Z,96.80
2022-08-14T10:48:09.359Z,96.40
2022-08-14T10:50:46.348Z,96.50
2022-08-14T10:53:15.494Z,95.90
2022-08-14T10:55:46.055Z,95.70
2022-08-14T10:58:14.990Z,96.30
2022-08-14T11:00:57.254Z,96.60
2022-08-14T11:03:35.806Z,96.20
2022-08-14T11:06:20.285Z,94.20
2022-08-14T11:08:52.116Z,93.00
2022-08-14T11:11:35.812Z,92.90
2022-08-14T11:14:07.208Z,92.40
2022-08-14T11:16:40.663Z,92.00
2022-08-14T11:19:12.246Z,92.10
2022-08-14T11:21:45.654Z,92.60
2022-08-14T11:24:50.463Z,92.50
2022-08-14T11:27:07.426Z,92.10
2022-08-14T11:29:37.222Z,92.30
2022-08-14T11:32:07.906Z,92.40
2022-08-14T11:34:39.556Z,91.30
2022-08-14T11:37:22.886Z,91.40
2022-08-14T11:40:00.814Z,91.40
2022-08-14T11:42:56.857Z,90.40
2022-08-14T11:45:23.136Z,89.30
2022-08-14T11:48:11.152Z,89.80
2022-08-14T11:50:42.413Z,91.00
2022-08-14T11:53:21.862Z,91.10
2022-08-14T11:55:57.146Z,90.80
2022-08-14T11:58:29.193Z,90.80
2022-08-14T12:01:02.840Z,91.00
2022-08-14T12:03:51.285Z,91.40
2022-08-14T12:06:29.185Z,88.20
2022-08-14T12:09:08.813Z,87.90
2022-08-14T12:11:47.707Z,88.00
2022-08-14T12:14:29.377Z,89.10
2022-08-14T12:17:12.613Z,87.40
2022-08-14T12:19:54.242Z,86.90
2022-08-14T12:22:37.145Z,86.70
2022-08-14T12:25:10.960Z,86.50
2022-08-14T12:27:52.781Z,86.00
2022-08-14T12:30:38.042Z,84.80
2022-08-14T12:33:30.530Z,85.10
2022-08-14T12:36:05.415Z,83.70
2022-08-14T12:38:38.430Z,82.30
2022-08-14T12:41:16.311Z,82.70
2022-08-14T12:43:53.740Z,81.80
2022-08-14T12:46:28.686Z,84.00
2022-08-14T12:48:58.640Z,87.00
2022-08-14T12:51:30.830Z,84.90
2022-08-14T12:54:01.655Z,86.10
2022-08-14T12:56:33.620Z,87.90
2022-08-14T12:59:03.596Z,86.20
2022-08-14T13:01:59.861Z,87.20
2022-08-14T13:04:23.121Z,88.00
2022-08-14T13:06:53.067Z,88.60
2022-08-14T13:09:36.315Z,87.40
2022-08-14T13:12:32.532Z,87.40
2022-08-14T13:14:59.026Z,89.50
2022-08-14T13:17:28.545Z,90.80
2022-08-14T13:19:59.109Z,91.00
2022-08-14T13:22:33.648Z,91.00
2022-08-14T13:25:09.862Z,91.10
2022-08-14T13:27:46.502Z,90.20
2022-08-14T13:30:23.691Z,89.50
2022-08-14T13:32:54.697Z,90.30
2022-08-14T13:35:27.054Z,90.20
2022-08-14T13:37:55.570Z,90.40
2022-08-14T13:40:27.781Z,90.60
2022-08-14T13:42:57.670Z,90.30
2022-08-14T13:45:59.740Z,89.90
2022-08-14T13:48:19.126Z,90.00
2022-08-14T13:51:10.667Z,89.80
2022-08-14T13:54:06.902Z,89.80
2022-08-14T13:56:42.101Z,89.50
2022-08-14T13:59:11.699Z,89.10
2022-08-14T14:01:45.926Z,89.30
2022-08-14T14:04:20.507Z,89.70
2022-08-14T14:06:51.431Z,90.30
2022-08-14T14:09:26.041Z,90.50
2022-08-14T14:11:56.433Z,90.70
2022-08-14T14:14:44.790Z,91.10
2022-08-14T14:17:18.812Z,91.50
2022-08-14T14:19:47.743Z,91.70
2022-08-14T14:22:35.330Z,91.70
2022-08-14T14:25:06.187Z,91.20
2022-08-14T14:27:40.764Z,91.20
2022-08-14T14:30:46.563Z,91.10
2022-08-14T14:33:02.157Z,90.90
2022-08-14T14:35:39.726Z,90.70
2022-08-14T14:38:09.260Z,90.90
2022-08-14T14:40:52.818Z,91.40
2022-08-14T14:43:26.405Z,90.80
2022-08-14T14:45:56.563Z,90.10
2022-08-14T14:48:29.965Z,90.30
2022-08-14T14:51:01.567Z,88.50
2022-08-14T14:53:39.182Z,88.00
2022-08-14T14:59:14.081Z,89.10
2022-08-14T15:01:49.539Z,86.80
2022-08-14T15:04:20.647Z,85.70
2022-08-14T15:06:50.152Z,86.40
2022-08-14T15:09:23.769Z,87.20
2022-08-14T15:11:52.505Z,86.40
2022-08-14T15:14:56.260Z,86.90
2022-08-14T15:17:10.718Z,86.70
2022-08-14T15:19:39.725Z,87.40
2022-08-14T15:22:10.687Z,88.60
2022-08-14T15:24:39.944Z,90.10
2022-08-14T15:27:09.442Z,90.70
2022-08-14T15:29:42.943Z,91.40
2022-08-14T15:32:12.051Z,91.10
2022-08-14T15:34:51.977Z,90.60
2022-08-14T15:37:22.963Z,90.30
2022-08-14T15:39:52.714Z,89.20
2022-08-14T15:42:23.133Z,90.30
2022-08-14T15:44:58.372Z,90.60
2022-08-14T15:47:31.331Z,91.40
2022-08-14T15:50:01.536Z,91.90
2022-08-14T15:52:32.645Z,92.20
2022-08-14T15:55:05.019Z,92.00
2022-08-14T15:57:34.373Z,91.70
2022-08-14T16:00:43.881Z,91.90
2022-08-14T16:03:15.537Z,92.10
2022-08-14T16:05:46.080Z,92.50
2022-08-14T16:08:29.066Z,93.00
2022-08-14T16:11:00.130Z,92.60
2022-08-14T16:13:39.276Z,93.00
2022-08-14T16:16:34.412Z,93.60
2022-08-14T16:19:10.681Z,94.60
2022-08-14T16:22:01.474Z,94.90
2022-08-14T16:24:35.914Z,95.40
2022-08-14T16:27:33.755Z,95.90
2022-08-14T16:30:24.982Z,96.90
2022-08-14T16:32:59.870Z,97.30
2022-08-14T16:35:42.245Z,97.50
2022-08-14T16:38:46.403Z,97.80
2022-08-14T16:41:22.096Z,98.40
2022-08-14T16:43:59.315Z,98.30
2022-08-14T16:46:31.488Z,98.00
2022-08-14T16:49:03.277Z,98.10
2022-08-14T16:51:34.873Z,98.50
2022-08-14T16:54:10.432Z,98.80
2022-08-14T16:56:57.492Z,99.10
2022-08-14T16:59:30.609Z,99.10
2022-08-14T17:02:18.869Z,99.00
2022-08-14T17:04:49.853Z,99.00
2022-08-14T17:07:22.202Z,99.00
2022-08-14T17:09:54.618Z,99.00
2022-08-14T17:12:34.952Z,99.20
2022-08-14T17:15:09.895Z,99.40
2022-08-14T17:17:49.839Z,99.90
2022-08-14T17:20:53.436Z,99.90
2022-08-14T17:23:17.847Z,99.90
2022-08-14T17:25:51.031Z,99.90
2022-08-14T17:28:52.718Z,99.90
2022-08-14T17:31:12.619Z,99.90
2022-08-14T17:33:44.587Z,99.90
2022-08-14T17:36:24.541Z,99.90
2022-08-14T17:39:02.685Z,99.90
2022-08-14T17:41:38.766Z,99.90
2022-08-14T17:44:33.799Z,99.90
2022-08-14T17:47:23.953Z,99.90
2022-08-14T17:51:00.373Z,99.90
2022-08-14T18:01:49.622Z,99.90
2022-08-14T18:04:27.945Z,99.90
2022-08-14T18:07:08.854Z,99.90
2022-08-14T18:09:57.105Z,99.90
2022-08-14T18:12:36.446Z,99.90
2022-08-14T18:15:16.100Z,99.90
2022-08-14T18:17:52.894Z,99.90
2022-08-14T18:21:39.831Z,99.90
2022-08-14T18:23:13.854Z,99.90
2022-08-14T18:25:51.926Z,99.90
2022-08-14T18:28:48.049Z,99.90
2022-08-14T18:31:42.011Z,99.90
2022-08-14T18:34:32.199Z,99.90
2022-08-14T18:37:16.867Z,99.90
2022-08-14T18:40:01.732Z,99.90
2022-08-14T18:42:45.473Z,99.90
2022-08-14T18:45:19.070Z,99.90
2022-08-14T18:48:28.779Z,99.90
2022-08-14T18:51:15.105Z,99.90
2022-08-14T18:53:58.237Z,99.90
2022-08-14T18:57:02.890Z,99.90
2022-08-14T18:59:43.434Z,99.90
2022-08-14T19:02:43.411Z,99.90
2022-08-14T19:05:12.614Z,99.90
2022-08-14T19:07:43.587Z,99.90
2022-08-14T19:10:37.241Z,99.90
2022-08-14T19:13:12.332Z,99.90
2022-08-14T19:15:56.549Z,99.90
2022-08-14T19:18:38.587Z,99.90
2022-08-14T19:21:13.214Z,99.90
2022-08-14T19:23:44.770Z,99.90
2022-08-14T19:26:35.834Z,99.90
2022-08-14T19:29:25.782Z,99.90
2022-08-14T19:31:56.662Z,99.90
2022-08-14T19:34:48.069Z,99.90
2022-08-14T19:37:46.261Z,99.90
2022-08-14T19:40:29.000Z,99.90
2022-08-14T19:42:59.314Z,99.90
2022-08-14T19:45:33.575Z,99.90
2022-08-14T19:48:05.381Z,99.90
2022-08-14T19:50:40.542Z,99.90
2022-08-14T19:53:17.630Z,99.90
2022-08-14T19:55:59.757Z,99.90
2022-08-14T19:58:54.573Z,99.90
2022-08-14T20:01:36.374Z,99.90
2022-08-14T20:04:45.402Z,99.90
2022-08-14T20:07:00.278Z,99.90
2022-08-14T20:11:06.554Z,99.90
2022-08-14T20:12:34.551Z,99.90
2022-08-14T20:15:15.471Z,99.90
2022-08-14T20:17:52.876Z,99.90
2022-08-14T20:20:32.117Z,99.90
2022-08-14T20:23:11.215Z,99.90
2022-08-14T20:25:55.856Z,99.90
2022-08-14T20:28:35.664Z,99.90
2022-08-14T20:31:17.868Z,99.90
2022-08-14T20:34:06.476Z,99.90
2022-08-14T20:36:40.055Z,99.90
2022-08-14T20:39:15.224Z,99.90
2022-08-14T20:41:48.994Z,99.90
2022-08-14T20:44:41.122Z,99.90
2022-08-14T20:47:17.120Z,99.90
2022-08-14T20:49:45.460Z,99.90
2022-08-14T20:52:18.890Z,99.90
2022-08-14T20:54:51.879Z,99.90
2022-08-14T20:57:20.875Z,99.90
2022-08-14T20:59:53.624Z,99.90
2022-08-14T21:02:46.594Z,99.90
2022-08-14T21:05:34.132Z,99.90
2022-08-14T21:08:09.810Z,99.90
2022-08-14T21:10:53.258Z,99.90
2022-08-14T21:14:08.694Z,99.90
2022-08-14T21:16:32.948Z,99.90
2022-08-14T21:19:04.102Z,99.90
2022-08-14T21:21:41.462Z,99.90
2022-08-14T21:24:38.483Z,99.90
2022-08-14T21:27:12.289Z,99.90
2022-08-14T21:29:54.238Z,99.90
2022-08-14T21:32:46.946Z,99.90
2022-08-14T21:35:22.989Z,99.90
2022-08-14T21:37:52.705Z,99.90
2022-08-14T21:40:40.278Z,99.90
2022-08-14T21:43:17.941Z,99.90
2022-08-14T21:45:53.249Z,99.90
2022-08-14T21:48:25.174Z,99.90
2022-08-14T21:51:01.205Z,99.90
2022-08-14T21:53:58.842Z,99.90
2022-08-14T21:56:38.946Z,99.90
2022-08-14T21:59:18.022Z,99.90
2022-08-14T22:02:00.078Z,99.90
2022-08-14T22:04:34.469Z,99.90
2022-08-14T22:07:12.302Z,99.90
2022-08-14T22:09:42.828Z,99.90
2022-08-14T22:12:57.904Z,99.90
2022-08-14T22:15:06.187Z,99.90
2022-08-14T22:17:35.411Z,99.90
2022-08-14T22:20:07.597Z,99.90
2022-08-14T22:22:37.913Z,99.90
2022-08-14T22:25:08.757Z,99.90
2022-08-14T22:27:56.049Z,99.90
2022-08-14T22:30:26.232Z,99.90
2022-08-14T22:32:57.510Z,99.90
2022-08-14T22:35:26.804Z,99.90
2022-08-14T22:38:01.569Z,99.90
2022-08-14T22:41:08.571Z,99.90
2022-08-14T22:43:38.878Z,99.90
2022-08-14T22:46:15.090Z,99.90
2022-08-14T22:48:50.094Z,99.90
2022-08-14T22:51:23.876Z,99.90
2022-08-14T22:53:56.768Z,99.90
2022-08-14T22:56:30.051Z,99.90
2022-08-14T22:59:00.775Z,99.90
2022-08-14T23:01:56.772Z,99.90
2022-08-14T23:04:34.740Z,99.90
2022-08-14T23:07:22.085Z,99.90
2022-08-14T23:09:56.565Z,99.90
2022-08-14T23:12:28.709Z,99.90
2022-08-14T23:14:59.121Z,99.90
2022-08-14T23:17:27.968Z,99.90
2022-08-14T23:20:19.243Z,99.90
2022-08-14T23:22:51.905Z,99.90
2022-08-14T23:25:56.844Z,99.90
2022-08-14T23:28:33.575Z,99.90
2022-08-14T23:31:05.608Z,99.90
2022-08-14T23:33:35.554Z,99.90
2022-08-14T23:36:28.827Z,99.90
2022-08-14T23:38:54.333Z,99.90
2022-08-14T23:41:24.162Z,99.90
2022-08-14T23:43:55.367Z,99.90
2022-08-14T23:49:12.301Z,99.90
2022-08-14T23:51:41.376Z,99.90
2022-08-14T23:54:48.788Z,99.90
2022-08-14T23:57:00.249Z,99.90
2022-08-14T23:59:31.896Z,99.90
